Time;durP1;ratioP1;P1;durP2;ratioP2;P2;SDS_P1;SDS_P2;PMS_P1;PMS_P2;Temp;Humidity;BMP_temperature;BMP_pressure;BME280_temperature;BME280_humidity;BME280_pressure;Samples;Min_cycle;Max_cycle;Signal;HPM_P1;HPM_P2
2022/07/20 00:00:43;;;;;;;14.80;3.93;;;;;;;24.28;55.46;100289.50;8292537;28;20034;-56
2022/07/20 00:04:43;;;;;;;11.63;3.50;;;;;;;24.26;55.17;100280.59;8297276;28;20335;-56
2022/07/20 00:13:04;;;;;;;13.35;3.33;;;;;;;23.73;57.63;100274.06;8296168;28;20339;-56
2022/07/20 00:17:04;;;;;;;9.07;3.55;;;;;;;23.36;58.78;100275.97;8291859;28;20165;-56
2022/07/20 00:21:05;;;;;;;4.70;3.70;;;;;;;23.19;59.28;100272.13;8287565;28;20116;-56
2022/07/20 00:25:06;;;;;;;11.68;3.88;;;;;;;23.03;60.25;100272.72;8291972;28;20395;-56
2022/07/20 00:29:07;;;;;;;6.40;3.63;;;;;;;22.85;60.34;100269.91;8294759;28;20043;-56
2022/07/20 00:33:07;;;;;;;9.45;4.00;;;;;;;22.76;60.47;100258.31;8292938;28;20511;-54
2022/07/20 00:37:07;;;;;;;8.98;3.95;;;;;;;22.70;60.96;100277.66;8294159;28;20034;-56
2022/07/20 00:41:08;;;;;;;14.27;4.30;;;;;;;22.67;60.59;100265.19;8292552;28;20041;-56
2022/07/20 00:45:09;;;;;;;12.52;4.50;;;;;;;22.67;60.77;100261.56;8294982;28;20042;-55
2022/07/20 00:49:11;;;;;;;6.63;4.05;;;;;;;22.60;60.80;100250.59;8292415;28;20422;-54
2022/07/20 00:53:12;;;;;;;5.68;4.07;;;;;;;22.52;61.32;100248.13;8292764;28;20053;-55
2022/07/20 00:57:12;;;;;;;11.73;4.75;;;;;;;22.51;61.97;100243.69;8292109;28;20067;-56
2022/07/20 01:01:13;;;;;;;8.18;4.30;;;;;;;22.51;61.59;100246.44;8290916;28;20657;-56
2022/07/20 01:05:14;;;;;;;9.90;4.07;;;;;;;22.50;61.97;100244.75;8296429;28;20068;-56
2022/07/20 01:09:18;;;;;;;8.32;4.00;;;;;;;22.55;61.92;100244.94;8287758;28;20060;-55
2022/07/20 01:13:18;;;;;;;13.05;4.35;;;;;;;22.28;63.05;100248.06;8288790;28;20101;-56
2022/07/20 01:17:19;;;;;;;10.70;4.50;;;;;;;22.45;62.48;100241.78;8288126;28;20046;-56
2022/07/20 01:21:19;;;;;;;14.75;4.65;;;;;;;22.58;61.95;100244.50;8288384;28;20095;-56
2022/07/20 01:25:19;;;;;;;9.13;4.67;;;;;;;22.62;62.27;100245.72;8289007;28;20057;-56
2022/07/20 01:29:20;;;;;;;9.82;4.15;;;;;;;22.63;62.09;100250.16;8287599;28;20265;-55
2022/07/20 01:33:20;;;;;;;9.18;4.43;;;;;;;22.54;62.25;100251.50;8289047;28;20122;-56
2022/07/20 01:37:21;;;;;;;12.55;4.07;;;;;;;22.57;62.62;100256.56;8301395;28;20044;-57
2022/07/20 01:41:21;;;;;;;6.43;4.07;;;;;;;22.58;62.14;100257.41;8294798;28;20664;-54
2022/07/20 01:45:22;;;;;;;9.38;4.20;;;;;;;22.59;61.77;100259.94;8294452;28;20570;-56
2022/07/20 01:49:22;;;;;;;8.27;4.30;;;;;;;22.52;62.08;100248.13;8295353;28;20503;-55
2022/07/20 01:53:23;;;;;;;8.82;3.97;;;;;;;22.43;62.78;100243.94;8295208;28;20145;-57
2022/07/20 01:57:23;;;;;;;5.85;4.22;;;;;;;21.99;64.59;100244.00;8298210;28;20041;-56
2022/07/20 02:01:23;;;;;;;11.32;4.50;;;;;;;21.93;65.43;100241.31;8297325;28;20036;-56
2022/07/20 02:05:24;;;;;;;10.75;4.88;;;;;;;21.98;65.06;100238.72;8309984;28;20375;-56
2022/07/20 02:09:24;;;;;;;13.27;5.05;;;;;;;22.10;64.40;100235.06;8296826;28;20045;-56
2022/07/20 02:13:25;;;;;;;18.33;4.60;;;;;;;22.05;64.72;100232.13;8301376;28;20517;-57
2022/07/20 02:17:25;;;;;;;9.98;4.55;;;;;;;22.00;65.22;100234.72;8297989;28;20137;-56
2022/07/20 02:21:26;;;;;;;8.27;4.57;;;;;;;21.98;65.48;100234.06;8295231;28;20557;-59
2022/07/20 02:25:27;;;;;;;7.90;4.60;;;;;;;21.77;66.51;100226.13;8301495;28;20078;-57
2022/07/20 02:29:27;;;;;;;10.48;5.03;;;;;;;21.75;66.91;100239.31;8328604;28;20599;-58
2022/07/20 02:33:27;;;;;;;7.47;4.40;;;;;;;21.87;66.27;100226.53;8294972;28;20049;-58
2022/07/20 02:37:28;;;;;;;8.57;4.63;;;;;;;21.85;66.05;100227.78;8294184;28;20684;-58
2022/07/20 02:41:28;;;;;;;8.60;4.50;;;;;;;21.90;65.30;100239.84;8291160;28;20061;-57
2022/07/20 02:45:29;;;;;;;7.00;4.57;;;;;;;21.76;65.12;100218.97;8289484;28;20038;-58
2022/07/20 02:49:29;;;;;;;12.48;5.20;;;;;;;21.77;65.99;100220.63;8296816;28;20402;-58
2022/07/20 02:53:29;;;;;;;10.93;5.30;;;;;;;21.71;66.96;100215.97;8298287;28;20040;-58
2022/07/20 02:57:30;;;;;;;12.98;5.13;;;;;;;21.61;67.33;100215.63;8309203;28;20034;-58
2022/07/20 03:01:30;;;;;;;10.02;5.03;;;;;;;21.45;68.15;100221.63;8291578;28;20044;-58
2022/07/20 03:05:31;;;;;;;12.63;5.00;;;;;;;21.89;64.98;100317.97;8302052;28;20040;-58
2022/07/20 03:09:32;;;;;;;10.70;4.00;;;;;;;23.52;56.95;100299.38;8290814;28;20308;-58
2022/07/20 03:13:32;;;;;;;9.20;3.90;;;;;;;25.19;52.09;100284.41;8297580;28;20133;-59
2022/07/20 03:17:41;;;;;;;6.00;3.90;;;;;;;25.50;51.28;100292.34;8309595;28;20068;-58
2022/07/20 03:21:42;;;;;;;10.63;3.92;;;;;;;25.02;52.70;100298.09;8292153;28;20184;-58
2022/07/20 03:25:42;;;;;;;10.13;3.45;;;;;;;24.33;55.21;100308.97;8292523;28;20053;-58
2022/07/20 03:29:43;;;;;;;7.68;3.35;;;;;;;23.53;58.43;100312.09;8292464;28;20041;-57
2022/07/20 03:33:56;;;;;;;9.65;3.97;;;;;;;23.23;59.47;100327.69;8292808;28;20049;-58
2022/07/20 03:37:57;;;;;;;11.35;3.60;;;;;;;22.91;60.17;100336.00;8292440;28;20506;-57
2022/07/20 03:41:57;;;;;;;11.70;3.53;;;;;;;22.92;59.94;100351.50;8291464;28;20526;-58
2022/07/20 03:45:58;;;;;;;13.32;4.35;;;;;;;22.76;59.99;100343.78;8293106;28;20033;-58
2022/07/20 03:49:59;;;;;;;9.52;3.70;;;;;;;22.67;61.53;100361.66;8291485;28;20076;-58
2022/07/20 03:53:59;;;;;;;11.45;3.67;;;;;;;22.98;59.61;100363.53;8292523;28;20568;-58
2022/07/20 03:58:00;;;;;;;11.98;4.63;;;;;;;22.98;59.82;100363.53;8295149;28;20456;-58
2022/07/20 04:02:01;;;;;;;12.60;4.38;;;;;;;23.49;57.92;100371.59;8294163;28;20048;-57
2022/07/20 04:06:03;;;;;;;12.98;4.60;;;;;;;24.06;55.42;100369.25;8306135;28;20493;-58
2022/07/20 04:10:03;;;;;;;14.63;4.70;;;;;;;24.13;55.82;100385.78;8292911;28;20041;-58
2022/07/20 04:14:04;;;;;;;19.20;4.70;;;;;;;23.89;57.29;100383.91;8303459;28;20060;-58
2022/07/20 04:18:05;;;;;;;14.45;5.43;;;;;;;24.31;56.40;100383.81;8287033;28;20092;-58
2022/07/20 04:22:05;;;;;;;13.20;7.38;;;;;;;24.77;57.25;100394.28;8288059;28;20080;-58
2022/07/20 04:26:06;;;;;;;20.05;8.88;;;;;;;25.00;57.64;100397.09;8288016;28;20034;-58
2022/07/20 04:30:06;;;;;;;18.83;8.93;;;;;;;25.12;58.42;100399.91;8291469;28;20042;-58
2022/07/20 04:34:07;;;;;;;21.92;10.30;;;;;;;25.02;59.41;100406.00;8294344;28;20056;-58
2022/07/20 04:38:08;;;;;;;23.77;11.32;;;;;;;25.14;59.80;100412.41;8289731;28;20087;-59
2022/07/20 04:42:08;;;;;;;27.50;12.38;;;;;;;25.31;60.29;100421.69;8289065;28;20041;-59
2022/07/20 04:46:09;;;;;;;26.77;12.60;;;;;;;25.43;60.73;100433.66;8287606;28;20049;-58
2022/07/20 04:50:10;;;;;;;20.88;13.55;;;;;;;25.51;60.97;100449.94;8288463;28;20042;-58
2022/07/20 04:54:11;;;;;;;23.25;13.60;;;;;;;25.56;61.62;100455.63;8288232;28;20080;-55
2022/07/20 04:58:11;;;;;;;25.25;14.20;;;;;;;25.69;61.58;100455.38;8294732;28;20495;-58
2022/07/20 05:02:12;;;;;;;33.25;14.48;;;;;;;25.75;62.25;100467.41;8288770;28;20112;-58
2022/07/20 05:06:12;;;;;;;25.87;15.07;;;;;;;25.92;62.10;100471.97;8300162;28;20087;-58
2022/07/20 05:10:12;;;;;;;27.83;15.65;;;;;;;26.05;62.63;100482.88;8290379;28;20288;-57
2022/07/20 05:14:13;;;;;;;30.63;15.60;;;;;;;26.20;62.92;100485.97;8294094;28;20459;-58
2022/07/20 05:18:13;;;;;;;33.55;16.90;;;;;;;26.30;63.09;100489.00;8297094;28;20050;-58
2022/07/20 05:22:15;;;;;;;26.75;16.40;;;;;;;26.40;63.50;100486.44;8295108;28;20558;-58
2022/07/20 05:26:15;;;;;;;36.60;18.00;;;;;;;26.55;63.66;100506.19;8297293;28;20054;-56
2022/07/20 05:30:16;;;;;;;30.10;18.30;;;;;;;26.62;64.77;100506.91;8296997;28;20600;-55
2022/07/20 05:34:17;;;;;;;38.60;20.08;;;;;;;26.64;64.43;100507.53;8312848;28;20052;-56
2022/07/20 05:38:19;;;;;;;33.38;20.15;;;;;;;26.69;64.75;100527.03;8313754;28;20077;-57
2022/07/20 05:42:19;;;;;;;32.70;20.38;;;;;;;26.75;64.58;100528.81;8303434;28;20561;-56
2022/07/20 05:46:20;;;;;;;42.17;21.42;;;;;;;26.78;64.47;100528.34;8308899;28;20560;-56
2022/07/20 05:50:20;;;;;;;35.38;20.27;;;;;;;26.91;64.22;100523.59;8310057;28;20401;-56
2022/07/20 05:54:21;;;;;;;33.90;20.08;;;;;;;27.03;64.38;100524.38;8284067;28;20209;-56
2022/07/20 05:58:21;;;;;;;31.40;19.83;;;;;;;26.91;64.26;100537.47;8301455;28;20041;-56
2022/07/20 06:02:21;;;;;;;31.70;20.42;;;;;;;27.16;64.08;100540.75;8319562;28;20272;-56
2022/07/20 06:06:22;;;;;;;31.60;20.43;;;;;;;27.15;63.92;100539.91;8292814;28;20044;-55
2022/07/20 06:10:23;;;;;;;30.93;19.97;;;;;;;27.43;64.53;100550.19;8291625;28;20041;-56
2022/07/20 06:14:23;;;;;;;32.80;20.08;;;;;;;27.69;63.26;100560.69;8295650;28;20844;-56
2022/07/20 06:18:24;;;;;;;35.85;20.30;;;;;;;27.77;62.77;100566.66;8291286;28;20388;-56
2022/07/20 06:22:24;;;;;;;31.80;18.50;;;;;;;28.13;62.73;100566.22;8304468;28;20441;-56
2022/07/20 06:26:24;;;;;;;31.43;18.80;;;;;;;28.11;61.35;100562.81;8294941;28;20152;-56
2022/07/20 06:30:25;;;;;;;28.40;18.87;;;;;;;28.34;61.16;100572.91;8303504;28;20334;-56
2022/07/20 06:34:25;;;;;;;26.87;18.60;;;;;;;28.76;60.35;100588.03;8302913;28;20292;-56
2022/07/20 06:38:26;;;;;;;31.10;19.92;;;;;;;28.64;59.97;100613.19;8293440;28;20685;-56
2022/07/20 06:42:26;;;;;;;32.97;17.90;;;;;;;28.70;60.00;100622.47;8292957;28;20041;-56
2022/07/20 06:46:26;;;;;;;28.35;18.08;;;;;;;28.70;58.87;100607.72;8301949;28;20048;-56
2022/07/20 06:50:27;;;;;;;30.07;17.03;;;;;;;28.68;59.85;100613.53;8300553;28;20038;-56
2022/07/20 06:54:28;;;;;;;27.40;18.40;;;;;;;28.93;59.75;100633.38;8292841;28;20276;-56
2022/07/20 06:58:28;;;;;;;25.93;17.93;;;;;;;28.76;59.85;100643.72;8292584;28;20481;-54
2022/07/20 07:02:28;;;;;;;29.97;17.93;;;;;;;28.73;60.63;100654.50;8293752;28;20817;-53
2022/07/20 07:06:30;;;;;;;26.73;17.53;;;;;;;28.37;60.22;100655.88;8291121;28;20284;-57
2022/07/20 07:10:30;;;;;;;27.27;17.63;;;;;;;28.10;61.52;100660.41;8292111;28;20339;-55
2022/07/20 07:14:31;;;;;;;35.38;18.77;;;;;;;28.05;61.94;100669.50;8297884;28;20041;-56
2022/07/20 07:18:31;;;;;;;28.63;18.38;;;;;;;28.05;61.90;100685.31;8293661;28;20045;-56
2022/07/20 07:22:32;;;;;;;28.92;17.20;;;;;;;28.73;60.79;100708.25;8299251;28;20056;-56
2022/07/20 07:26:33;;;;;;;31.30;17.15;;;;;;;28.55;60.27;100725.22;8305649;28;20049;-56
2022/07/20 07:30:33;;;;;;;29.77;17.13;;;;;;;28.04;61.16;100714.22;8301556;28;20046;-56
2022/07/20 07:34:34;;;;;;;32.25;17.92;;;;;;;27.80;62.49;100720.94;8303871;28;20315;-56
2022/07/20 07:38:34;;;;;;;27.77;15.68;;;;;;;27.66;62.34;100728.72;8294265;28;20045;-57
2022/07/20 07:42:35;;;;;;;28.40;16.67;;;;;;;27.43;62.62;100747.41;8295023;28;20042;-56
2022/07/20 07:46:35;;;;;;;37.30;18.30;;;;;;;27.17;62.89;100753.47;8288439;28;20034;-57
2022/07/20 07:50:38;;;;;;;31.27;17.65;;;;;;;27.11;63.58;100765.53;8286616;28;20175;-56
2022/07/20 07:54:38;;;;;;;28.65;16.60;;;;;;;27.19;64.31;100779.03;8288606;28;20585;-57
2022/07/20 07:58:39;;;;;;;34.97;17.38;;;;;;;27.30;64.35;100786.56;8294743;28;20570;-56
2022/07/20 08:02:39;;;;;;;25.05;17.13;;;;;;;27.51;64.55;100786.78;8298943;28;20637;-57
2022/07/20 08:06:39;;;;;;;30.65;17.25;;;;;;;27.24;66.29;100804.16;8291568;28;20482;-57
2022/07/20 08:10:41;;;;;;;33.80;19.23;;;;;;;25.66;77.39;100813.16;8289751;28;20033;-56
2022/07/20 08:14:42;;;;;;;29.75;19.10;;;;;;;25.00;82.05;100815.75;8301729;28;20804;-57
2022/07/20 08:18:47;;;;;;;41.28;20.17;;;;;;;24.89;78.98;100801.81;8302354;28;20488;-59
2022/07/20 08:22:48;;;;;;;34.08;20.40;;;;;;;24.90;81.69;100793.28;8306533;28;20434;-59
2022/07/20 08:26:48;;;;;;;30.50;18.55;;;;;;;25.18;78.50;100780.91;8295467;28;20045;-59
2022/07/20 08:30:51;;;;;;;29.38;17.58;;;;;;;25.47;77.10;100767.16;8294270;28;20049;-59
2022/07/20 08:34:52;;;;;;;29.73;18.25;;;;;;;25.55;77.19;100750.22;8290221;28;20038;-58
2022/07/20 08:38:52;;;;;;;30.05;19.55;;;;;;;25.35;82.38;100743.25;8293256;28;20521;-59
2022/07/20 08:42:53;;;;;;;33.22;18.80;;;;;;;25.38;81.84;100718.72;8299847;28;20568;-59
2022/07/20 08:46:55;;;;;;;37.55;19.95;;;;;;;25.53;82.61;100716.41;8308287;28;20048;-59
2022/07/20 08:50:55;;;;;;;33.40;19.33;;;;;;;25.58;84.09;100713.75;8317449;28;20037;-58
2022/07/20 08:54:56;;;;;;;35.25;19.35;;;;;;;25.92;80.55;100701.97;8314796;28;20041;-59
2022/07/20 08:58:56;;;;;;;33.22;19.10;;;;;;;26.32;79.62;100675.34;8312007;28;20095;-59
2022/07/20 09:03:02;;;;;;;33.53;19.60;;;;;;;26.55;79.25;100661.50;8314927;28;20401;-59
2022/07/20 09:07:03;;;;;;;40.92;19.70;;;;;;;27.00;76.39;100663.66;8314781;28;20038;-58
2022/07/20 09:11:03;;;;;;;35.65;19.30;;;;;;;27.64;72.21;100693.97;8307960;28;20053;-59
2022/07/20 09:15:04;;;;;;;34.25;17.85;;;;;;;28.30;66.03;100733.09;8303920;28;20355;-57
2022/07/20 09:19:05;;;;;;;31.25;17.77;;;;;;;28.30;64.23;100728.34;8309448;28;20101;-57
2022/07/20 09:23:13;;;;;;;23.23;15.33;;;;;;;28.77;64.70;100734.47;8295711;28;20037;-57
2022/07/20 09:27:14;;;;;;;23.55;14.68;;;;;;;29.05;62.76;100737.16;8295927;28;20042;-57
2022/07/20 09:35:33;;;;;;;27.00;15.10;;;;;;;29.91;60.12;100759.53;8394286;27;20397;-56
2022/07/20 09:39:34;;;;;;;25.88;14.13;;;;;;;30.24;60.30;100764.97;8377224;28;20037;-57
2022/07/20 09:43:36;;;;;;;16.92;13.65;;;;;;;30.96;57.51;100751.41;8373704;28;20037;-57
2022/07/20 09:47:36;;;;;;;21.55;11.85;;;;;;;30.56;58.12;100766.94;8356000;28;20457;-56
2022/07/20 09:51:42;;;;;;;18.67;12.50;;;;;;;30.29;56.71;100775.34;8372523;28;20125;-56
2022/07/20 09:55:42;;;;;;;21.60;12.40;;;;;;;31.39;57.14;100778.25;8374353;28;20289;-56
2022/07/20 09:59:47;;;;;;;16.55;11.02;;;;;;;31.02;54.31;100771.81;8373870;28;20110;-56
2022/07/20 10:03:49;;;;;;;20.50;10.57;;;;;;;31.95;53.68;100781.06;8374182;28;20040;-56
2022/07/20 10:07:49;;;;;;;19.02;10.10;;;;;;;32.80;51.08;100790.78;8374681;28;20033;-57
2022/07/20 10:11:50;;;;;;;21.25;10.40;;;;;;;33.42;50.07;100786.56;8361593;28;20129;-57
2022/07/20 10:16:01;;;;;;;24.17;10.82;;;;;;;34.34;48.41;100790.69;8364712;28;20047;-57
2022/07/20 10:20:01;;;;;;;15.88;9.48;;;;;;;35.21;48.33;100791.44;8340792;28;20524;-57
2022/07/20 10:24:29;;;;;;;18.33;9.70;;;;;;;35.09;48.30;100801.38;8329361;28;20502;-57
2022/07/20 10:28:32;;;;;;;17.83;8.68;;;;;;;34.24;47.25;100793.56;8319493;28;20275;-57
2022/07/20 10:32:32;;;;;;;14.23;9.15;;;;;;;34.91;46.41;100797.34;8326517;28;20044;-56
2022/07/20 10:36:48;;;;;;;13.23;8.97;;;;;;;35.16;45.91;100801.91;8327743;28;20056;-56
2022/07/20 10:41:41;;;;;;;17.83;9.88;;;;;;;31.82;51.01;100789.97;8329190;28;20284;-57
2022/07/20 10:45:29;;;;;;;15.00;10.13;;;;;;;32.78;49.94;100793.84;8314364;28;20037;-57
2022/07/20 10:50:05;;;;;;;16.70;9.80;;;;;;;34.39;48.45;100793.50;8308592;28;20036;-56
2022/07/20 10:54:33;;;;;;;14.32;9.23;;;;;;;35.76;45.37;100806.88;8306298;28;20036;-56
2022/07/20 10:58:37;;;;;;;13.63;9.43;;;;;;;34.62;45.83;100798.38;8305665;28;20281;-57
2022/07/20 11:02:37;;;;;;;12.82;8.27;;;;;;;35.25;45.46;100781.25;8293030;28;20192;-57
2022/07/20 11:06:40;;;;;;;13.77;8.43;;;;;;;35.26;45.24;100773.66;8305054;28;20037;-57
2022/07/20 11:10:41;;;;;;;16.13;9.45;;;;;;;34.55;46.65;100770.59;8306774;28;20053;-57
2022/07/20 11:14:52;;;;;;;12.85;8.70;;;;;;;35.12;45.72;100775.50;8298360;28;20049;-57
2022/07/20 11:18:53;;;;;;;15.55;7.65;;;;;;;36.72;43.47;100779.09;8301973;28;20037;-57
2022/07/20 11:22:56;;;;;;;10.30;8.23;;;;;;;36.62;42.78;100773.63;8304663;28;20061;-56
2022/07/20 11:26:57;;;;;;;9.13;7.67;;;;;;;34.91;44.84;100768.41;8305651;28;20053;-57
2022/07/20 11:30:58;;;;;;;16.75;8.77;;;;;;;35.65;44.25;100763.13;8304657;28;20466;-57
2022/07/20 11:34:59;;;;;;;22.92;8.68;;;;;;;35.26;44.82;100753.97;8303622;28;20038;-57
2022/07/20 11:39:03;;;;;;;12.50;8.13;;;;;;;35.26;45.32;100745.53;8314243;28;20084;-56
2022/07/20 11:43:15;;;;;;;13.02;7.95;;;;;;;36.39;43.18;100749.19;8313812;28;20056;-57
2022/07/20 11:47:16;;;;;;;11.95;7.05;;;;;;;37.77;41.29;100755.78;8309911;28;20095;-57
2022/07/20 11:51:17;;;;;;;7.53;5.78;;;;;;;36.98;41.78;100745.69;8312444;28;20045;-57
2022/07/20 11:55:32;;;;;;;8.38;5.60;;;;;;;36.69;41.92;100737.44;8313288;28;20112;-57
2022/07/20 11:59:34;;;;;;;12.65;6.18;;;;;;;36.31;42.15;100732.16;8315259;28;20049;-57
2022/07/20 12:03:37;;;;;;;10.18;5.40;;;;;;;35.54;42.99;100728.66;8316806;28;20739;-57
2022/07/20 12:08:09;;;;;;;7.00;5.45;;;;;;;35.35;43.94;100733.38;8316582;28;20115;-57
2022/07/20 12:12:04;;;;;;;7.70;5.35;;;;;;;34.27;45.02;100756.47;8305514;28;20045;-57
2022/07/20 12:16:05;;;;;;;6.60;5.32;;;;;;;34.11;45.46;100738.03;8312840;28;20132;-57
2022/07/20 12:20:06;;;;;;;8.10;5.30;;;;;;;34.10;45.74;100733.56;8313920;28;20147;-56
2022/07/20 12:24:07;;;;;;;8.30;5.07;;;;;;;33.53;45.76;100743.34;8312917;28;20192;-57
2022/07/20 12:28:07;;;;;;;6.75;4.90;;;;;;;33.13;47.50;100740.63;8313501;28;20056;-57
2022/07/20 12:32:08;;;;;;;7.15;5.25;;;;;;;33.49;46.56;100733.84;8315354;28;20056;-56
2022/07/20 12:36:09;;;;;;;13.55;5.63;;;;;;;33.15;47.71;100729.94;8300871;28;20038;-57
2022/07/20 12:40:11;;;;;;;12.20;5.38;;;;;;;33.34;47.15;100731.03;8306694;28;20041;-57
2022/07/20 12:44:29;;;;;;;7.97;6.20;;;;;;;32.29;48.27;100728.25;8305802;28;20418;-57
2022/07/20 12:48:52;;;;;;;10.05;6.28;;;;;;;32.54;47.92;100719.94;8304657;28;20775;-57
2022/07/20 12:52:53;;;;;;;;;;;;;;;32.83;48.08;100723.81;8304936;28;20041;-56
2022/07/20 12:56:53;;;;;;;10.73;5.43;;;;;;;32.84;49.13;100719.06;8308274;28;19927;-55
2022/07/20 13:00:54;;;;;;;10.13;5.60;;;;;;;32.55;48.03;100713.19;8308979;28;20116;-56
2022/07/20 13:04:55;;;;;;;12.82;6.25;;;;;;;31.97;49.34;100724.84;8303910;28;20395;-55
2022/07/20 13:08:55;;;;;;;10.00;6.47;;;;;;;32.06;49.29;100706.41;8307367;28;20045;-57
2022/07/20 13:12:56;;;;;;;9.63;6.47;;;;;;;31.99;49.81;100717.03;8307977;28;20088;-56
2022/07/20 13:16:56;;;;;;;9.52;6.93;;;;;;;32.52;49.27;100710.94;8307212;28;20291;-56
2022/07/20 13:20:56;;;;;;;11.75;6.88;;;;;;;32.76;49.00;100709.25;8306365;28;20057;-56
2022/07/20 13:24:57;;;;;;;10.73;6.63;;;;;;;32.14;49.33;100697.47;8305451;28;20038;-55
2022/07/20 13:28:57;;;;;;;10.40;6.93;;;;;;;32.39;50.02;100700.31;8299518;28;20372;-56
2022/07/20 13:32:58;;;;;;;13.43;7.53;;;;;;;32.64;48.71;100691.91;8303807;28;20272;-56
2022/07/20 13:36:58;;;;;;;9.88;6.65;;;;;;;32.28;49.74;100681.78;8302496;28;20072;-56
2022/07/20 13:40:58;;;;;;;12.80;7.32;;;;;;;32.67;48.66;100696.94;8306937;28;20441;-56
2022/07/20 13:44:59;;;;;;;13.45;6.97;;;;;;;32.53;47.87;100695.00;8308190;28;20099;-55
2022/07/20 13:49:02;;;;;;;9.63;6.70;;;;;;;32.30;48.56;100701.97;8309704;28;20112;-55
2022/07/20 13:53:02;;;;;;;11.75;6.82;;;;;;;32.21;49.17;100693.25;8313007;28;20048;-56
2022/07/20 13:57:03;;;;;;;11.60;6.67;;;;;;;33.01;48.23;100691.59;8312704;28;20549;-56
2022/07/20 14:01:05;;;;;;;11.63;6.45;;;;;;;32.64;47.06;100691.91;8311149;28;20379;-55
2022/07/20 14:05:06;;;;;;;12.50;6.50;;;;;;;32.26;49.09;100681.22;8311575;28;20048;-56
2022/07/20 14:09:06;;;;;;;7.38;6.57;;;;;;;32.50;48.33;100676.78;8312747;28;20037;-57
2022/07/20 14:13:07;;;;;;;13.02;6.20;;;;;;;32.55;48.28;100687.13;8313010;28;20042;-57
2022/07/20 14:17:09;;;;;;;15.50;6.75;;;;;;;32.37;48.07;100696.09;8314950;28;20288;-57
2022/07/20 14:21:12;;;;;;;20.27;6.43;;;;;;;32.74;49.27;100686.28;8318954;28;20048;-56
2022/07/20 14:25:12;;;;;;;10.18;6.75;;;;;;;32.56;47.68;100678.47;8316907;28;20052;-56
2022/07/20 14:29:12;;;;;;;7.88;5.50;;;;;;;32.42;47.64;100682.97;8321005;28;20036;-56
2022/07/20 14:33:13;;;;;;;9.73;6.20;;;;;;;32.36;47.67;100678.47;8319725;28;20525;-57
2022/07/20 14:37:14;;;;;;;13.48;5.78;;;;;;;32.56;47.62;100672.03;8320857;28;20291;-56
2022/07/20 14:41:15;;;;;;;11.18;5.30;;;;;;;32.47;47.26;100677.34;8319912;28;20037;-56
2022/07/20 14:45:15;;;;;;;7.63;5.87;;;;;;;32.59;47.48;100675.09;8319757;28;20123;-56
2022/07/20 14:49:16;;;;;;;12.80;5.80;;;;;;;33.05;46.93;100676.72;8342229;28;20334;-56
2022/07/20 14:53:17;;;;;;;8.37;5.40;;;;;;;32.53;46.92;100667.81;8317958;28;20502;-56
2022/07/20 14:57:18;;;;;;;8.23;5.47;;;;;;;32.53;47.31;100665.00;8318510;28;20299;-56
2022/07/20 15:01:18;;;;;;;8.38;5.45;;;;;;;32.60;46.32;100660.00;8318844;28;20046;-55
2022/07/20 15:05:20;;;;;;;6.20;5.22;;;;;;;32.64;46.73;100647.09;8319751;28;20397;-56
2022/07/20 15:09:20;;;;;;;6.93;4.70;;;;;;;32.32;47.36;100646.50;8319245;28;20049;-56
2022/07/20 15:13:21;;;;;;;12.50;5.30;;;;;;;32.44;48.49;100624.69;8319720;28;20517;-56
2022/07/20 15:17:21;;;;;;;10.93;5.20;;;;;;;32.33;47.05;100617.41;8318050;28;20586;-57
2022/07/20 15:21:23;;;;;;;5.93;4.63;;;;;;;32.28;47.26;100609.00;8317770;28;20037;-57
2022/07/20 15:25:24;;;;;;;6.43;5.18;;;;;;;32.21;48.09;100597.25;8319080;28;20037;-56
2022/07/20 15:29:24;;;;;;;8.75;4.82;;;;;;;32.15;47.61;100592.78;8318408;28;20042;-56
2022/07/20 15:33:25;;;;;;;8.98;5.55;;;;;;;32.09;48.22;100605.09;8317507;28;20049;-56
2022/07/20 15:37:25;;;;;;;6.13;4.63;;;;;;;31.91;48.27;100598.09;8299624;28;20403;-56
2022/07/20 15:41:25;;;;;;;5.68;4.72;;;;;;;32.04;47.48;100585.50;8307561;28;20034;-56
2022/07/20 15:45:27;;;;;;;9.98;4.60;;;;;;;31.92;48.13;100568.16;8308789;28;20510;-56
2022/07/20 15:49:27;;;;;;;5.28;4.63;;;;;;;31.77;47.97;100562.50;8309387;28;20106;-55
2022/07/20 15:53:28;;;;;;;8.60;4.68;;;;;;;31.81;48.61;100574.84;8307745;28;20080;-56
2022/07/20 15:57:28;;;;;;;8.07;4.90;;;;;;;31.72;47.96;100568.13;8308889;28;20041;-56
2022/07/20 16:01:28;;;;;;;5.43;4.70;;;;;;;31.61;48.30;100563.63;8308085;28;20548;-56
2022/07/20 16:05:29;;;;;;;5.33;4.60;;;;;;;31.57;48.48;100568.09;8307533;28;20037;-55
2022/07/20 16:09:29;;;;;;;6.47;4.63;;;;;;;31.54;48.28;100588.22;8305249;28;20846;-57
2022/07/20 16:13:30;;;;;;;8.38;4.97;;;;;;;31.42;48.21;100594.06;8307971;28;20276;-56
2022/07/20 16:17:31;;;;;;;8.48;4.35;;;;;;;31.38;48.67;100598.50;8307393;28;20469;-56
2022/07/20 16:21:32;;;;;;;7.38;4.22;;;;;;;31.31;48.61;100603.53;8307681;28;20044;-56
2022/07/20 16:25:33;;;;;;;6.97;4.88;;;;;;;31.49;48.33;100593.78;8307868;28;20041;-55
2022/07/20 16:29:33;;;;;;;8.35;4.70;;;;;;;31.69;47.82;100610.63;8309040;28;20518;-56
2022/07/20 16:33:50;;;;;;;6.90;4.15;;;;;;;31.80;47.74;100595.50;8308315;28;20046;-56
2022/07/20 16:37:51;;;;;;;9.30;4.10;;;;;;;31.64;47.98;100591.03;8297099;28;20038;-56
2022/07/20 16:41:51;;;;;;;7.45;3.67;;;;;;;31.54;48.26;100596.59;8304077;28;20049;-56
2022/07/20 16:45:51;;;;;;;7.28;4.15;;;;;;;31.42;48.23;100598.81;8303154;28;20498;-56
2022/07/20 16:49:52;;;;;;;7.15;4.40;;;;;;;31.34;49.20;100593.72;8307179;28;20044;-56
2022/07/20 16:53:52;;;;;;;9.90;4.30;;;;;;;31.21;50.38;100594.22;8303474;28;20160;-56
2022/07/20 16:57:53;;;;;;;9.13;4.38;;;;;;;31.05;50.37;100592.50;8303798;28;20064;-55
2022/07/20 17:01:53;;;;;;;6.93;4.20;;;;;;;30.91;50.34;100591.28;8270093;28;20041;-55
2022/07/20 17:05:54;;;;;;;7.57;4.33;;;;;;;30.76;50.38;100599.63;8265748;28;20480;-56
2022/07/20 17:09:54;;;;;;;8.52;4.43;;;;;;;30.59;50.73;100604.50;8261408;28;20295;-55
2022/07/20 17:13:55;;;;;;;7.03;4.93;;;;;;;30.37;51.59;100602.66;8279745;28;20045;-55
2022/07/20 17:17:55;;;;;;;6.75;4.82;;;;;;;30.23;51.79;100595.88;8295162;28;20288;-56
2022/07/20 17:21:58;;;;;;;7.13;4.93;;;;;;;30.12;52.62;100599.66;8301281;28;20044;-56
2022/07/20 17:25:59;;;;;;;25.30;5.90;;;;;;;30.00;53.11;100626.88;8297926;28;20092;-56
2022/07/20 17:29:59;;;;;;;20.00;5.63;;;;;;;29.93;53.73;100629.06;8305061;28;20494;-54
2022/07/20 17:34:00;;;;;;;16.80;5.20;;;;;;;29.92;53.61;100635.72;8305791;28;20141;-56
2022/07/20 17:38:01;;;;;;;26.23;6.30;;;;;;;29.92;53.33;100644.09;8304492;28;20064;-56
2022/07/20 17:42:02;;;;;;;20.63;5.30;;;;;;;29.89;53.88;100627.88;8302595;28;20517;-56
2022/07/20 17:46:02;;;;;;;9.32;5.72;;;;;;;29.34;57.62;100613.34;8304213;28;20413;-56
2022/07/20 17:50:04;;;;;;;13.35;7.05;;;;;;;28.50;62.92;100627.72;8303620;28;20068;-54
2022/07/20 17:54:04;;;;;;;13.45;7.88;;;;;;;27.52;69.61;100590.38;8304017;28;20045;-55
2022/07/20 17:58:05;;;;;;;11.23;7.50;;;;;;;27.22;70.21;100573.94;8311693;28;20041;-56
2022/07/20 18:02:05;;;;;;;10.68;7.20;;;;;;;27.38;69.05;100544.56;8308460;28;20046;-55
2022/07/20 18:06:07;;;;;;;16.15;7.72;;;;;;;27.41;68.93;100588.50;8307568;28;20088;-56
2022/07/20 18:10:07;;;;;;;15.93;8.15;;;;;;;27.50;68.79;100610.06;8306221;28;20041;-56
2022/07/20 18:14:08;;;;;;;12.10;7.63;;;;;;;27.40;70.12;100609.00;8309356;28;20137;-55
2022/07/20 18:18:09;;;;;;;13.05;8.23;;;;;;;27.26;71.69;100629.84;8308573;28;20381;-56
2022/07/20 18:22:09;;;;;;;15.03;7.70;;;;;;;27.17;70.78;100636.84;8311316;28;20029;-55
2022/07/20 18:26:11;;;;;;;13.33;7.53;;;;;;;27.32;69.69;100642.75;8308564;28;20281;-56
2022/07/20 18:30:11;;;;;;;12.88;7.47;;;;;;;27.34;68.42;100637.78;8307544;28;20295;-56
2022/07/20 18:34:16;;;;;;;12.23;7.82;;;;;;;27.42;68.27;100651.28;8308105;28;20053;-56
2022/07/20 18:38:17;;;;;;;15.05;8.32;;;;;;;27.42;68.54;100646.59;8307097;28;20045;-52